Nearby METAR Reports

 

KSFO - San Francisco, California, USA
Distance from station: NNW 8km
Updated: Tue, 18-Sep-2018 8:56pm PDT
Few Clouds
Few Clouds
 Wind from W
Wind: W 15 mph , 24 km/h
Temperature: 55°F , 13°C
Dew Point: 50°F , 10°C
Humidity: 82%
Barometer: 29.91 inHg , 1012.9 hPa
Clouds: Few Clouds
Visibility: 10 miles , 16 km
Cloud details: Few Clouds 600 ft
2018/09/19 03:56 KSFO 190356Z 28013KT 10SM FEW006 13/10 A2991 RMK AO2 SLP127 T01330100
KSQL - San Carlos Airpo, California, USA
Distance from station: ESE 8km
Updated: Tue, 18-Sep-2018 4:47pm PDT
NOT Current
Clear
Clear
 Wind from W
Wind: W 13 mph , 20 km/h
Temperature: 68°F , 20°C
Dew Point: 50°F , 10°C
Humidity: 53%
Barometer: 29.89 inHg , 1012.2 hPa
Clouds: Clear
Visibility: 10 miles , 16 km
2018/09/18 23:47 KSQL 182347Z 28011KT 10SM SKC 20/10 A2989
 
KHAF - Half Moon Bay, California, USA
Distance from station: WSW 15km
Updated: Tue, 18-Sep-2018 8:55pm PDT
Mist, Overcast
Mist, Overcast
 Wind from NW
Wind: NW 8 mph , 13 km/h
Temperature: 55°F , 13°C
Dew Point: 52°F , 11°C
Humidity: 88%
Barometer: 29.95 inHg , 1014.2 hPa
Summary: Mist
Clouds: Overcast
Visibility: 5 miles , 8 km
Cloud details: Overcast 1000 ft
2018/09/19 03:55 KHAF 190355Z AUTO 32007KT 5SM BR OVC010 13/11 A2995 RMK AO2
KOAK - Oakland, California, USA
Distance from station: NNE 21km
Updated: Tue, 18-Sep-2018 8:53pm PDT
Few Clouds
Few Clouds
 Wind from W
Wind: W 8 mph , 13 km/h
Temperature: 57°F , 14°C
Dew Point: 54°F , 12°C
Humidity: 88%
Barometer: 29.91 inHg , 1012.9 hPa
Clouds: Few Clouds
Visibility: 10 miles , 16 km
Cloud details: Few Clouds 1000 ft
2018/09/19 03:53 KOAK 190353Z 26007KT 10SM FEW010 14/12 A2991 RMK AO2 SLP128 T01390117
 
KPAO - Palo Alto, California, USA
Distance from station: ESE 21km
Updated: Tue, 18-Sep-2018 8:47pm PDT
Clear
Clear
 Wind from NNW
Wind: NNW 8 mph , 13 km/h
Temperature: 57°F , 14°C
Dew Point: 52°F , 11°C
Humidity: 82%
Barometer: 29.93 inHg , 1013.5 hPa
Clouds: Clear
Visibility: 10 miles , 16 km
2018/09/19 03:47 KPAO 190347Z 33007KT 10SM SKC 14/11 A2993 RMK LAST
KHWD - Hayward, California, USA
Distance from station: NE 23km
Updated: Tue, 18-Sep-2018 8:54pm PDT
Mostly cloudy
Mostly cloudy
 Wind from WSW
Wind: WSW 7 mph , 11 km/h
Temperature: 59°F , 15°C
Dew Point: 52°F , 11°C
Humidity: 77%
Barometer: 29.91 inHg , 1012.9 hPa
Clouds: Mostly cloudy
Visibility: 10 miles , 16 km
Cloud details: Mostly cloudy 1100 ft
2018/09/19 03:54 KHWD 190354Z 24006KT 10SM BKN011 15/11 A2991 RMK AO2 SLP139 T01500111
 
KNUQ - Moffett Nas/Mtn, California, USA
Distance from station: ESE 30km
Updated: Tue, 18-Sep-2018 8:56pm PDT
Clear
Clear
 Wind from N
Wind: N 6 mph , 9 km/h
Temperature: 59°F , 15°C
Dew Point: 54°F , 12°C
Humidity: 82%
Barometer: 29.92 inHg , 1013.2 hPa
Clouds: Clear
Visibility: 10 miles , 16 km
2018/09/19 03:56 KNUQ 190356Z 01005KT 10SM CLR 15/12 A2992 RMK AO2 SLP136 T01500117 $
KSJC - San Jose, California, USA
Distance from station: ESE 42km
Updated: Tue, 18-Sep-2018 8:53pm PDT
Clear
Clear
 Wind from NNW
Wind: NNW 7 mph , 11 km/h
Temperature: 59°F , 15°C
Dew Point: 54°F , 12°C
Humidity: 82%
Barometer: 29.92 inHg , 1013.2 hPa
Clouds: Clear
Visibility: 10 miles , 16 km
2018/09/19 03:53 KSJC 190353Z 34006KT 10SM CLR 15/12 A2992 RMK AO2 SLP130 T01500117
 
KLVK - Livermore, California, USA
Distance from station: ENE 49km
Updated: Tue, 18-Sep-2018 8:53pm PDT
Clear
Clear
 Wind from NW
Wind: NW 5 mph , 7 km/h
Temperature: 59°F , 15°C
Dew Point: 48°F , 9°C
Humidity: 68%
Barometer: 29.88 inHg , 1011.9 hPa
Clouds: Clear
Visibility: 10 miles , 16 km
2018/09/19 03:53 KLVK 190353Z AUTO 31004KT 10SM CLR 15/09 A2988 RMK AO2 SLP118 T01500094
KRHV - San Jose/Reid, California, USA
Distance from station: ESE 53km
Updated: Tue, 18-Sep-2018 8:49pm PDT
Clear
Clear
 Wind from NW
Wind: NW 6 mph , 9 km/h
Temperature: 61°F , 16°C
Dew Point: 54°F , 12°C
Humidity: 77%
Barometer: 29.90 inHg , 1012.5 hPa
Clouds: Clear
Visibility: 10 miles , 16 km
2018/09/19 03:49 KRHV 190349Z 31005KT 10SM SKC 16/12 A2990
 
KCCR - Concord, California, USA
Distance from station: NNE 56km
Updated: Tue, 18-Sep-2018 8:53pm PDT
Clear
Clear
 Wind from SSE
Wind: SSE 8 mph , 13 km/h
Temperature: 64°F , 18°C
Dew Point: 50°F , 10°C
Humidity: 60%
Barometer: 29.87 inHg , 1011.5 hPa
Clouds: Clear
Visibility: 10 miles , 16 km
2018/09/19 03:53 KCCR 190353Z 16007KT 10SM CLR 18/10 A2987 RMK AO2 SLP102 T01780100
KDVO - Novato/Gnoss Fld, California, USA
Distance from station: NNW 70km
Updated: Tue, 18-Sep-2018 8:55pm PDT
Clear
Clear
 Wind from calm
Wind: Calm
Temperature: 55°F , 13°C
Dew Point: 48°F , 9°C
Humidity: 77%
Barometer: 29.88 inHg , 1011.9 hPa
Clouds: Clear
Visibility: 10 miles , 16 km
2018/09/19 03:55 KDVO 190355Z AUTO 00000KT 10SM CLR 13/09 A2988 RMK AO2
 
KAPC - Napa, California, USA
Distance from station: N 73km
Updated: Tue, 18-Sep-2018 8:54pm PDT
Clear
Clear
 Wind from S
Wind: S 7 mph , 11 km/h
Temperature: 59°F , 15°C
Dew Point: 55°F , 13°C
Humidity: 88%
Barometer: 29.88 inHg , 1011.9 hPa
Clouds: Clear
Visibility: 10 miles , 16 km
2018/09/19 03:54 KAPC 190354Z AUTO 18006KT 10SM CLR 15/13 A2988 RMK AO2 SLP109 T01500128